sensor_id;sensor_type;location;lat;lon;timestamp;P1;durP1;ratioP1;P2;durP2;ratioP2
70247;SDS011;57641;51.416;5.506;2022-08-19T00:01:34;13.32;;;10.43;;
70247;SDS011;57641;51.416;5.506;2022-08-19T00:04:03;11.82;;;9.57;;
70247;SDS011;57641;51.416;5.506;2022-08-19T00:06:30;13.45;;;10.38;;
70247;SDS011;57641;51.416;5.506;2022-08-19T00:08:57;14.32;;;10.25;;
70247;SDS011;57641;51.416;5.506;2022-08-19T00:11:25;12.57;;;9.80;;
70247;SDS011;57641;51.416;5.506;2022-08-19T00:13:53;15.27;;;10.98;;
70247;SDS011;57641;51.416;5.506;2022-08-19T00:16:19;14.60;;;10.57;;
70247;SDS011;57641;51.416;5.506;2022-08-19T00:18:46;13.48;;;10.20;;
70247;SDS011;57641;51.416;5.506;2022-08-19T00:21:12;13.50;;;10.93;;
70247;SDS011;57641;51.416;5.506;2022-08-19T00:23:39;13.63;;;9.57;;
70247;SDS011;57641;51.416;5.506;2022-08-19T00:26:06;15.48;;;10.70;;
70247;SDS011;57641;51.416;5.506;2022-08-19T00:28:33;11.82;;;9.38;;
70247;SDS011;57641;51.416;5.506;2022-08-19T00:31:01;15.15;;;10.80;;
70247;SDS011;57641;51.416;5.506;2022-08-19T00:33:28;13.40;;;10.00;;
70247;SDS011;57641;51.416;5.506;2022-08-19T00:35:58;13.68;;;10.45;;
70247;SDS011;57641;51.416;5.506;2022-08-19T00:38:24;13.77;;;10.48;;
70247;SDS011;57641;51.416;5.506;2022-08-19T00:40:50;12.88;;;10.20;;
70247;SDS011;57641;51.416;5.506;2022-08-19T00:43:18;14.40;;;10.30;;
70247;SDS011;57641;51.416;5.506;2022-08-19T00:45:46;12.80;;;10.45;;
70247;SDS011;57641;51.416;5.506;2022-08-19T00:48:13;12.48;;;10.32;;
70247;SDS011;57641;51.416;5.506;2022-08-19T00:50:40;13.20;;;10.55;;
70247;SDS011;57641;51.416;5.506;2022-08-19T00:53:08;16.45;;;11.43;;
70247;SDS011;57641;51.416;5.506;2022-08-19T00:55:35;14.63;;;11.13;;
70247;SDS011;57641;51.416;5.506;2022-08-19T00:58:06;14.57;;;10.93;;
70247;SDS011;57641;51.416;5.506;2022-08-19T01:00:35;13.35;;;10.20;;
70247;SDS011;57641;51.416;5.506;2022-08-19T01:03:06;14.48;;;11.75;;
70247;SDS011;57641;51.416;5.506;2022-08-19T01:05:34;15.40;;;11.25;;
70247;SDS011;57641;51.416;5.506;2022-08-19T01:08:02;17.40;;;12.70;;
70247;SDS011;57641;51.416;5.506;2022-08-19T01:10:32;19.08;;;12.25;;
70247;SDS011;57641;51.416;5.506;2022-08-19T01:13:02;21.40;;;14.63;;
70247;SDS011;57641;51.416;5.506;2022-08-19T01:15:30;22.83;;;15.10;;
70247;SDS011;57641;51.416;5.506;2022-08-19T01:18:04;19.42;;;13.43;;
70247;SDS011;57641;51.416;5.506;2022-08-19T01:20:33;21.40;;;14.60;;
70247;SDS011;57641;51.416;5.506;2022-08-19T01:22:59;21.67;;;14.50;;
70247;SDS011;57641;51.416;5.506;2022-08-19T01:25:27;23.08;;;15.75;;
70247;SDS011;57641;51.416;5.506;2022-08-19T01:27:56;23.30;;;15.63;;
70247;SDS011;57641;51.416;5.506;2022-08-19T01:30:24;25.48;;;16.65;;
70247;SDS011;57641;51.416;5.506;2022-08-19T01:32:52;23.23;;;15.68;;
70247;SDS011;57641;51.416;5.506;2022-08-19T01:35:19;19.95;;;14.20;;
70247;SDS011;57641;51.416;5.506;2022-08-19T01:37:49;21.48;;;14.32;;
70247;SDS011;57641;51.416;5.506;2022-08-19T01:40:18;19.58;;;14.20;;
70247;SDS011;57641;51.416;5.506;2022-08-19T01:42:46;20.25;;;13.88;;
70247;SDS011;57641;51.416;5.506;2022-08-19T01:45:12;20.35;;;14.25;;
70247;SDS011;57641;51.416;5.506;2022-08-19T01:47:38;25.10;;;14.88;;
70247;SDS011;57641;51.416;5.506;2022-08-19T01:50:05;23.08;;;15.38;;
70247;SDS011;57641;51.416;5.506;2022-08-19T01:52:37;23.83;;;14.50;;
70247;SDS011;57641;51.416;5.506;2022-08-19T01:55:05;24.02;;;16.00;;
70247;SDS011;57641;51.416;5.506;2022-08-19T01:57:33;21.17;;;14.85;;
70247;SDS011;57641;51.416;5.506;2022-08-19T01:59:59;21.65;;;15.43;;
70247;SDS011;57641;51.416;5.506;2022-08-19T02:02:27;20.58;;;14.13;;
70247;SDS011;57641;51.416;5.506;2022-08-19T02:04:52;20.85;;;14.40;;
70247;SDS011;57641;51.416;5.506;2022-08-19T02:07:20;20.65;;;14.30;;
70247;SDS011;57641;51.416;5.506;2022-08-19T02:09:47;22.35;;;14.45;;
70247;SDS011;57641;51.416;5.506;2022-08-19T02:12:13;22.73;;;14.68;;
70247;SDS011;57641;51.416;5.506;2022-08-19T02:14:39;23.30;;;14.73;;
70247;SDS011;57641;51.416;5.506;2022-08-19T02:17:05;23.42;;;15.20;;
70247;SDS011;57641;51.416;5.506;2022-08-19T02:19:31;20.95;;;14.60;;
70247;SDS011;57641;51.416;5.506;2022-08-19T02:21:58;19.67;;;13.10;;
70247;SDS011;57641;51.416;5.506;2022-08-19T02:24:25;19.38;;;13.57;;
70247;SDS011;57641;51.416;5.506;2022-08-19T02:26:51;19.50;;;13.15;;
70247;SDS011;57641;51.416;5.506;2022-08-19T02:29:16;18.73;;;13.65;;
70247;SDS011;57641;51.416;5.506;2022-08-19T02:31:42;18.58;;;13.13;;
70247;SDS011;57641;51.416;5.506;2022-08-19T02:34:07;24.00;;;14.55;;
70247;SDS011;57641;51.416;5.506;2022-08-19T02:36:33;19.80;;;13.77;;
70247;SDS011;57641;51.416;5.506;2022-08-19T02:38:59;19.75;;;13.20;;
70247;SDS011;57641;51.416;5.506;2022-08-19T02:44:46;24.08;;;14.60;;
70247;SDS011;57641;51.416;5.506;2022-08-19T02:47:12;21.48;;;13.93;;
70247;SDS011;57641;51.416;5.506;2022-08-19T02:49:39;20.50;;;14.30;;
70247;SDS011;57641;51.416;5.506;2022-08-19T02:52:05;18.65;;;13.88;;
70247;SDS011;57641;51.416;5.506;2022-08-19T02:54:30;20.48;;;14.18;;
70247;SDS011;57641;51.416;5.506;2022-08-19T02:56:56;21.40;;;14.55;;
70247;SDS011;57641;51.416;5.506;2022-08-19T02:59:21;21.00;;;14.07;;
70247;SDS011;57641;51.416;5.506;2022-08-19T03:01:46;23.33;;;15.23;;
70247;SDS011;57641;51.416;5.506;2022-08-19T03:04:13;20.83;;;13.93;;
70247;SDS011;57641;51.416;5.506;2022-08-19T03:06:44;22.60;;;14.95;;
70247;SDS011;57641;51.416;5.506;2022-08-19T03:09:11;22.40;;;15.05;;
70247;SDS011;57641;51.416;5.506;2022-08-19T03:11:38;22.40;;;14.57;;
70247;SDS011;57641;51.416;5.506;2022-08-19T03:14:05;21.55;;;14.73;;
70247;SDS011;57641;51.416;5.506;2022-08-19T03:16:33;26.23;;;16.77;;
70247;SDS011;57641;51.416;5.506;2022-08-19T03:19:04;26.13;;;16.17;;
70247;SDS011;57641;51.416;5.506;2022-08-19T03:21:30;28.40;;;16.60;;
70247;SDS011;57641;51.416;5.506;2022-08-19T03:23:58;25.98;;;15.98;;
70247;SDS011;57641;51.416;5.506;2022-08-19T03:26:27;26.30;;;15.40;;
70247;SDS011;57641;51.416;5.506;2022-08-19T03:28:53;24.05;;;15.13;;
70247;SDS011;57641;51.416;5.506;2022-08-19T03:31:20;24.80;;;16.17;;
70247;SDS011;57641;51.416;5.506;2022-08-19T03:33:48;28.70;;;17.52;;
70247;SDS011;57641;51.416;5.506;2022-08-19T03:36:15;28.10;;;17.05;;
70247;SDS011;57641;51.416;5.506;2022-08-19T03:38:44;26.30;;;16.73;;
70247;SDS011;57641;51.416;5.506;2022-08-19T03:41:15;27.20;;;16.63;;
70247;SDS011;57641;51.416;5.506;2022-08-19T03:43:46;27.73;;;16.40;;
70247;SDS011;57641;51.416;5.506;2022-08-19T03:46:13;32.03;;;18.05;;
70247;SDS011;57641;51.416;5.506;2022-08-19T03:48:41;25.90;;;16.80;;
70247;SDS011;57641;51.416;5.506;2022-08-19T03:51:14;29.02;;;16.67;;
70247;SDS011;57641;51.416;5.506;2022-08-19T03:53:43;27.55;;;17.52;;
70247;SDS011;57641;51.416;5.506;2022-08-19T03:56:09;27.88;;;15.88;;
70247;SDS011;57641;51.416;5.506;2022-08-19T03:58:35;26.42;;;16.58;;
70247;SDS011;57641;51.416;5.506;2022-08-19T04:01:02;27.27;;;16.45;;
70247;SDS011;57641;51.416;5.506;2022-08-19T04:03:36;24.42;;;14.90;;
70247;SDS011;57641;51.416;5.506;2022-08-19T04:06:14;25.40;;;15.40;;
70247;SDS011;57641;51.416;5.506;2022-08-19T04:08:46;25.33;;;16.50;;
70247;SDS011;57641;51.416;5.506;2022-08-19T04:11:13;25.83;;;15.13;;
70247;SDS011;57641;51.416;5.506;2022-08-19T04:13:40;26.63;;;16.63;;
70247;SDS011;57641;51.416;5.506;2022-08-19T04:16:08;30.65;;;17.90;;
70247;SDS011;57641;51.416;5.506;2022-08-19T04:18:35;26.77;;;16.25;;
70247;SDS011;57641;51.416;5.506;2022-08-19T04:21:02;27.15;;;16.90;;
70247;SDS011;57641;51.416;5.506;2022-08-19T04:23:29;25.70;;;16.40;;
70247;SDS011;57641;51.416;5.506;2022-08-19T04:25:55;25.30;;;16.13;;
70247;SDS011;57641;51.416;5.506;2022-08-19T04:28:21;24.20;;;15.45;;
70247;SDS011;57641;51.416;5.506;2022-08-19T04:30:48;25.25;;;15.60;;
70247;SDS011;57641;51.416;5.506;2022-08-19T04:33:16;24.70;;;15.82;;
70247;SDS011;57641;51.416;5.506;2022-08-19T04:35:45;26.20;;;15.98;;
70247;SDS011;57641;51.416;5.506;2022-08-19T04:38:13;27.73;;;16.80;;
70247;SDS011;57641;51.416;5.506;2022-08-19T04:40:41;24.90;;;15.90;;
70247;SDS011;57641;51.416;5.506;2022-08-19T04:43:35;27.90;;;16.90;;
70247;SDS011;57641;51.416;5.506;2022-08-19T04:46:10;28.42;;;17.40;;
70247;SDS011;57641;51.416;5.506;2022-08-19T04:51:08;33.13;;;17.67;;
70247;SDS011;57641;51.416;5.506;2022-08-19T04:53:37;31.80;;;18.35;;
70247;SDS011;57641;51.416;5.506;2022-08-19T04:56:08;29.27;;;17.55;;
70247;SDS011;57641;51.416;5.506;2022-08-19T04:58:38;31.20;;;17.65;;
70247;SDS011;57641;51.416;5.506;2022-08-19T05:01:07;31.85;;;18.50;;
70247;SDS011;57641;51.416;5.506;2022-08-19T05:03:36;32.33;;;17.85;;
70247;SDS011;57641;51.416;5.506;2022-08-19T05:06:07;32.35;;;19.02;;
70247;SDS011;57641;51.416;5.506;2022-08-19T05:08:35;30.35;;;19.20;;
70247;SDS011;57641;51.416;5.506;2022-08-19T05:11:25;33.85;;;20.10;;
70247;SDS011;57641;51.416;5.506;2022-08-19T05:13:53;40.38;;;20.92;;
70247;SDS011;57641;51.416;5.506;2022-08-19T05:16:20;33.58;;;20.17;;
70247;SDS011;57641;51.416;5.506;2022-08-19T05:18:48;33.97;;;19.67;;
70247;SDS011;57641;51.416;5.506;2022-08-19T05:21:32;40.33;;;23.27;;
70247;SDS011;57641;51.416;5.506;2022-08-19T05:24:18;38.53;;;21.55;;
70247;SDS011;57641;51.416;5.506;2022-08-19T05:26:46;44.20;;;24.90;;
70247;SDS011;57641;51.416;5.506;2022-08-19T05:29:14;39.45;;;22.50;;
70247;SDS011;57641;51.416;5.506;2022-08-19T05:31:41;39.63;;;22.88;;
70247;SDS011;57641;51.416;5.506;2022-08-19T05:34:08;39.58;;;23.13;;
70247;SDS011;57641;51.416;5.506;2022-08-19T05:36:37;48.25;;;25.75;;
70247;SDS011;57641;51.416;5.506;2022-08-19T05:39:05;38.25;;;21.92;;
70247;SDS011;57641;51.416;5.506;2022-08-19T05:41:37;40.55;;;22.50;;
70247;SDS011;57641;51.416;5.506;2022-08-19T05:44:07;54.95;;;30.23;;
70247;SDS011;57641;51.416;5.506;2022-08-19T05:46:34;49.63;;;26.13;;
70247;SDS011;57641;51.416;5.506;2022-08-19T05:49:02;55.60;;;27.88;;
70247;SDS011;57641;51.416;5.506;2022-08-19T05:51:32;60.45;;;29.65;;
70247;SDS011;57641;51.416;5.506;2022-08-19T05:54:00;55.30;;;29.02;;
70247;SDS011;57641;51.416;5.506;2022-08-19T05:56:30;52.50;;;28.20;;
70247;SDS011;57641;51.416;5.506;2022-08-19T05:58:57;57.50;;;29.20;;
70247;SDS011;57641;51.416;5.506;2022-08-19T06:01:24;60.35;;;30.75;;
70247;SDS011;57641;51.416;5.506;2022-08-19T06:03:51;59.63;;;30.45;;
70247;SDS011;57641;51.416;5.506;2022-08-19T06:06:17;62.05;;;30.80;;
70247;SDS011;57641;51.416;5.506;2022-08-19T06:08:43;63.03;;;30.98;;
70247;SDS011;57641;51.416;5.506;2022-08-19T06:11:20;59.15;;;29.33;;
70247;SDS011;57641;51.416;5.506;2022-08-19T06:13:49;64.72;;;30.58;;
70247;SDS011;57641;51.416;5.506;2022-08-19T06:16:20;62.95;;;30.55;;
70247;SDS011;57641;51.416;5.506;2022-08-19T06:18:53;63.30;;;31.58;;
70247;SDS011;57641;51.416;5.506;2022-08-19T06:21:23;62.08;;;29.85;;
70247;SDS011;57641;51.416;5.506;2022-08-19T06:23:52;66.55;;;31.70;;
70247;SDS011;57641;51.416;5.506;2022-08-19T06:26:19;65.45;;;30.60;;
70247;SDS011;57641;51.416;5.506;2022-08-19T06:28:46;59.30;;;30.35;;
70247;SDS011;57641;51.416;5.506;2022-08-19T06:31:20;68.07;;;31.88;;
70247;SDS011;57641;51.416;5.506;2022-08-19T06:33:48;54.55;;;27.70;;
70247;SDS011;57641;51.416;5.506;2022-08-19T06:36:22;60.00;;;30.23;;
70247;SDS011;57641;51.416;5.506;2022-08-19T06:39:00;61.08;;;30.27;;
70247;SDS011;57641;51.416;5.506;2022-08-19T06:41:27;62.92;;;30.90;;
70247;SDS011;57641;51.416;5.506;2022-08-19T06:43:54;57.28;;;29.52;;
70247;SDS011;57641;51.416;5.506;2022-08-19T06:46:20;59.13;;;28.85;;
70247;SDS011;57641;51.416;5.506;2022-08-19T06:48:47;62.85;;;30.33;;
70247;SDS011;57641;51.416;5.506;2022-08-19T06:51:17;64.85;;;28.85;;
70247;SDS011;57641;51.416;5.506;2022-08-19T06:53:46;65.25;;;30.13;;
70247;SDS011;57641;51.416;5.506;2022-08-19T06:56:16;58.15;;;28.60;;
70247;SDS011;57641;51.416;5.506;2022-08-19T06:58:45;57.97;;;27.65;;
70247;SDS011;57641;51.416;5.506;2022-08-19T07:01:11;50.10;;;25.05;;
70247;SDS011;57641;51.416;5.506;2022-08-19T07:03:38;52.53;;;26.42;;
70247;SDS011;57641;51.416;5.506;2022-08-19T07:06:05;52.50;;;26.80;;
70247;SDS011;57641;51.416;5.506;2022-08-19T07:08:33;59.45;;;27.27;;
70247;SDS011;57641;51.416;5.506;2022-08-19T07:11:02;53.45;;;26.25;;
70247;SDS011;57641;51.416;5.506;2022-08-19T07:13:32;52.60;;;24.17;;
70247;SDS011;57641;51.416;5.506;2022-08-19T07:18:34;53.88;;;26.20;;
70247;SDS011;57641;51.416;5.506;2022-08-19T07:23:29;50.92;;;25.52;;
70247;SDS011;57641;51.416;5.506;2022-08-19T07:25:55;45.45;;;22.98;;
70247;SDS011;57641;51.416;5.506;2022-08-19T07:28:22;49.35;;;23.90;;
70247;SDS011;57641;51.416;5.506;2022-08-19T07:30:48;45.97;;;23.50;;
70247;SDS011;57641;51.416;5.506;2022-08-19T07:33:15;47.97;;;24.20;;
70247;SDS011;57641;51.416;5.506;2022-08-19T07:35:43;47.50;;;23.63;;
70247;SDS011;57641;51.416;5.506;2022-08-19T07:38:11;40.65;;;21.45;;
70247;SDS011;57641;51.416;5.506;2022-08-19T07:40:37;45.35;;;23.00;;
70247;SDS011;57641;51.416;5.506;2022-08-19T07:43:02;45.22;;;22.55;;
70247;SDS011;57641;51.416;5.506;2022-08-19T07:45:28;47.05;;;23.58;;
70247;SDS011;57641;51.416;5.506;2022-08-19T07:47:54;43.25;;;22.73;;
70247;SDS011;57641;51.416;5.506;2022-08-19T07:50:20;45.13;;;21.92;;
70247;SDS011;57641;51.416;5.506;2022-08-19T07:52:46;41.88;;;21.15;;
70247;SDS011;57641;51.416;5.506;2022-08-19T07:55:15;36.58;;;20.90;;
70247;SDS011;57641;51.416;5.506;2022-08-19T07:57:46;43.60;;;22.77;;
70247;SDS011;57641;51.416;5.506;2022-08-19T08:00:11;39.80;;;21.63;;
70247;SDS011;57641;51.416;5.506;2022-08-19T08:02:41;40.70;;;21.17;;
70247;SDS011;57641;51.416;5.506;2022-08-19T08:05:08;39.58;;;20.77;;
70247;SDS011;57641;51.416;5.506;2022-08-19T08:07:53;36.40;;;20.23;;
70247;SDS011;57641;51.416;5.506;2022-08-19T08:10:37;41.10;;;22.60;;
70247;SDS011;57641;51.416;5.506;2022-08-19T08:13:06;46.05;;;24.27;;
70247;SDS011;57641;51.416;5.506;2022-08-19T08:15:32;42.15;;;23.67;;
70247;SDS011;57641;51.416;5.506;2022-08-19T08:17:57;40.55;;;23.02;;
70247;SDS011;57641;51.416;5.506;2022-08-19T08:20:23;39.30;;;22.17;;
70247;SDS011;57641;51.416;5.506;2022-08-19T08:22:50;37.08;;;21.92;;
70247;SDS011;57641;51.416;5.506;2022-08-19T08:25:34;42.90;;;24.02;;
70247;SDS011;57641;51.416;5.506;2022-08-19T08:28:02;37.28;;;23.05;;
70247;SDS011;57641;51.416;5.506;2022-08-19T08:30:32;39.78;;;24.60;;
70247;SDS011;57641;51.416;5.506;2022-08-19T08:32:59;33.30;;;21.08;;
70247;SDS011;57641;51.416;5.506;2022-08-19T08:35:25;39.63;;;23.63;;
70247;SDS011;57641;51.416;5.506;2022-08-19T08:37:52;41.50;;;23.88;;
70247;SDS011;57641;51.416;5.506;2022-08-19T08:40:39;42.75;;;25.85;;
70247;SDS011;57641;51.416;5.506;2022-08-19T08:43:19;43.53;;;24.23;;
70247;SDS011;57641;51.416;5.506;2022-08-19T08:45:53;39.30;;;22.67;;
70247;SDS011;57641;51.416;5.506;2022-08-19T08:48:44;34.80;;;21.85;;
70247;SDS011;57641;51.416;5.506;2022-08-19T08:51:23;41.60;;;25.55;;
70247;SDS011;57641;51.416;5.506;2022-08-19T08:53:54;44.00;;;25.00;;
70247;SDS011;57641;51.416;5.506;2022-08-19T08:56:24;42.42;;;25.10;;
70247;SDS011;57641;51.416;5.506;2022-08-19T09:01:25;38.77;;;25.67;;
70247;SDS011;57641;51.416;5.506;2022-08-19T09:03:52;41.72;;;25.35;;
70247;SDS011;57641;51.416;5.506;2022-08-19T09:16:46;29.85;;;19.70;;
70247;SDS011;57641;51.416;5.506;2022-08-19T09:19:13;33.17;;;21.95;;
70247;SDS011;57641;51.416;5.506;2022-08-19T09:21:39;31.92;;;20.38;;
70247;SDS011;57641;51.416;5.506;2022-08-19T09:24:05;28.55;;;18.48;;
70247;SDS011;57641;51.416;5.506;2022-08-19T09:26:31;27.48;;;17.25;;
70247;SDS011;57641;51.416;5.506;2022-08-19T09:28:58;31.38;;;20.23;;
70247;SDS011;57641;51.416;5.506;2022-08-19T09:31:25;22.08;;;14.95;;
70247;SDS011;57641;51.416;5.506;2022-08-19T09:33:53;26.77;;;16.40;;
70247;SDS011;57641;51.416;5.506;2022-08-19T09:36:22;27.25;;;17.10;;
70247;SDS011;57641;51.416;5.506;2022-08-19T09:38:50;26.70;;;16.30;;
70247;SDS011;57641;51.416;5.506;2022-08-19T09:41:21;23.67;;;14.95;;
70247;SDS011;57641;51.416;5.506;2022-08-19T09:43:49;24.45;;;16.73;;
70247;SDS011;57641;51.416;5.506;2022-08-19T09:46:17;26.95;;;18.27;;
70247;SDS011;57641;51.416;5.506;2022-08-19T09:48:45;28.63;;;18.08;;
70247;SDS011;57641;51.416;5.506;2022-08-19T09:51:15;30.63;;;19.45;;
70247;SDS011;57641;51.416;5.506;2022-08-19T09:53:44;29.40;;;18.73;;
70247;SDS011;57641;51.416;5.506;2022-08-19T09:56:10;34.13;;;21.55;;
70247;SDS011;57641;51.416;5.506;2022-08-19T09:58:37;29.17;;;19.80;;
70247;SDS011;57641;51.416;5.506;2022-08-19T10:01:04;32.60;;;19.58;;
70247;SDS011;57641;51.416;5.506;2022-08-19T10:03:31;34.63;;;19.35;;
70247;SDS011;57641;51.416;5.506;2022-08-19T10:06:00;27.33;;;16.85;;
70247;SDS011;57641;51.416;5.506;2022-08-19T10:08:28;25.58;;;14.63;;
70247;SDS011;57641;51.416;5.506;2022-08-19T10:10:56;25.23;;;14.98;;
70247;SDS011;57641;51.416;5.506;2022-08-19T10:13:23;22.90;;;13.75;;
70247;SDS011;57641;51.416;5.506;2022-08-19T10:15:51;23.73;;;13.45;;
70247;SDS011;57641;51.416;5.506;2022-08-19T10:18:19;19.77;;;12.23;;
70247;SDS011;57641;51.416;5.506;2022-08-19T10:20:46;19.35;;;12.93;;
70247;SDS011;57641;51.416;5.506;2022-08-19T10:23:14;19.17;;;11.23;;
70247;SDS011;57641;51.416;5.506;2022-08-19T10:25:41;19.85;;;12.45;;
70247;SDS011;57641;51.416;5.506;2022-08-19T10:28:08;19.55;;;11.82;;
70247;SDS011;57641;51.416;5.506;2022-08-19T10:30:37;22.63;;;12.43;;
70247;SDS011;57641;51.416;5.506;2022-08-19T10:33:04;18.63;;;10.57;;
70247;SDS011;57641;51.416;5.506;2022-08-19T10:35:31;17.83;;;11.23;;
70247;SDS011;57641;51.416;5.506;2022-08-19T10:37:56;16.33;;;9.45;;
70247;SDS011;57641;51.416;5.506;2022-08-19T10:40:24;20.95;;;10.75;;
70247;SDS011;57641;51.416;5.506;2022-08-19T10:42:54;21.50;;;10.68;;
70247;SDS011;57641;51.416;5.506;2022-08-19T10:45:23;16.42;;;9.57;;
70247;SDS011;57641;51.416;5.506;2022-08-19T10:47:51;16.02;;;9.23;;
70247;SDS011;57641;51.416;5.506;2022-08-19T10:50:17;15.63;;;10.20;;
70247;SDS011;57641;51.416;5.506;2022-08-19T10:53:05;18.35;;;9.23;;
70247;SDS011;57641;51.416;5.506;2022-08-19T10:55:35;15.98;;;9.00;;
70247;SDS011;57641;51.416;5.506;2022-08-19T10:58:21;17.63;;;9.30;;
70247;SDS011;57641;51.416;5.506;2022-08-19T11:00:52;17.60;;;8.98;;
70247;SDS011;57641;51.416;5.506;2022-08-19T11:03:19;18.27;;;10.55;;
70247;SDS011;57641;51.416;5.506;2022-08-19T11:05:45;19.50;;;11.35;;
70247;SDS011;57641;51.416;5.506;2022-08-19T11:08:24;23.83;;;12.85;;
70247;SDS011;57641;51.416;5.506;2022-08-19T11:10:52;23.23;;;13.02;;
70247;SDS011;57641;51.416;5.506;2022-08-19T11:13:22;17.00;;;10.68;;
70247;SDS011;57641;51.416;5.506;2022-08-19T11:15:55;19.00;;;11.88;;
70247;SDS011;57641;51.416;5.506;2022-08-19T11:18:40;24.50;;;13.20;;
70247;SDS011;57641;51.416;5.506;2022-08-19T11:21:18;24.30;;;12.57;;
70247;SDS011;57641;51.416;5.506;2022-08-19T11:23:46;24.90;;;13.45;;
70247;SDS011;57641;51.416;5.506;2022-08-19T11:26:15;27.50;;;15.18;;
70247;SDS011;57641;51.416;5.506;2022-08-19T11:28:42;25.27;;;14.00;;
70247;SDS011;57641;51.416;5.506;2022-08-19T11:31:11;22.08;;;12.85;;
70247;SDS011;57641;51.416;5.506;2022-08-19T11:33:38;27.60;;;14.95;;
70247;SDS011;57641;51.416;5.506;2022-08-19T11:36:04;25.42;;;14.68;;
70247;SDS011;57641;51.416;5.506;2022-08-19T11:38:30;22.35;;;13.15;;
70247;SDS011;57641;51.416;5.506;2022-08-19T11:41:00;28.92;;;16.40;;
70247;SDS011;57641;51.416;5.506;2022-08-19T11:43:28;28.02;;;16.00;;
70247;SDS011;57641;51.416;5.506;2022-08-19T11:45:55;30.08;;;16.33;;
70247;SDS011;57641;51.416;5.506;2022-08-19T11:48:22;30.05;;;16.75;;
70247;SDS011;57641;51.416;5.506;2022-08-19T11:50:49;33.05;;;17.48;;
70247;SDS011;57641;51.416;5.506;2022-08-19T11:53:15;30.10;;;15.70;;
70247;SDS011;57641;51.416;5.506;2022-08-19T11:55:48;25.67;;;15.85;;
70247;SDS011;57641;51.416;5.506;2022-08-19T11:58:15;27.10;;;16.27;;
70247;SDS011;57641;51.416;5.506;2022-08-19T12:00:42;29.48;;;16.85;;
70247;SDS011;57641;51.416;5.506;2022-08-19T12:03:10;26.67;;;15.65;;
70247;SDS011;57641;51.416;5.506;2022-08-19T12:05:38;26.63;;;15.32;;
70247;SDS011;57641;51.416;5.506;2022-08-19T12:08:04;30.10;;;17.83;;
70247;SDS011;57641;51.416;5.506;2022-08-19T12:10:31;25.92;;;15.57;;
70247;SDS011;57641;51.416;5.506;2022-08-19T12:12:57;29.27;;;15.88;;
70247;SDS011;57641;51.416;5.506;2022-08-19T12:15:22;28.60;;;16.17;;
70247;SDS011;57641;51.416;5.506;2022-08-19T12:17:48;27.67;;;15.73;;
70247;SDS011;57641;51.416;5.506;2022-08-19T12:20:13;27.50;;;16.98;;
70247;SDS011;57641;51.416;5.506;2022-08-19T12:22:40;26.02;;;14.63;;
70247;SDS011;57641;51.416;5.506;2022-08-19T12:25:08;27.70;;;16.17;;
70247;SDS011;57641;51.416;5.506;2022-08-19T12:27:36;28.00;;;14.77;;
70247;SDS011;57641;51.416;5.506;2022-08-19T12:30:04;25.48;;;14.95;;
70247;SDS011;57641;51.416;5.506;2022-08-19T12:32:31;25.88;;;15.65;;
70247;SDS011;57641;51.416;5.506;2022-08-19T12:34:56;29.63;;;17.67;;
70247;SDS011;57641;51.416;5.506;2022-08-19T12:37:22;25.67;;;15.32;;
70247;SDS011;57641;51.416;5.506;2022-08-19T12:39:47;26.80;;;15.32;;
70247;SDS011;57641;51.416;5.506;2022-08-19T12:42:13;26.98;;;15.10;;
70247;SDS011;57641;51.416;5.506;2022-08-19T12:44:40;22.90;;;13.88;;
70247;SDS011;57641;51.416;5.506;2022-08-19T12:47:08;25.60;;;14.25;;
70247;SDS011;57641;51.416;5.506;2022-08-19T12:49:35;22.00;;;13.50;;
70247;SDS011;57641;51.416;5.506;2022-08-19T12:52:03;21.52;;;12.95;;
70247;SDS011;57641;51.416;5.506;2022-08-19T12:54:29;22.38;;;12.85;;
70247;SDS011;57641;51.416;5.506;2022-08-19T12:56:56;18.30;;;12.02;;
70247;SDS011;57641;51.416;5.506;2022-08-19T12:59:23;18.42;;;10.85;;
70247;SDS011;57641;51.416;5.506;2022-08-19T13:01:48;21.23;;;11.75;;
70247;SDS011;57641;51.416;5.506;2022-08-19T13:04:14;19.77;;;12.00;;
70247;SDS011;57641;51.416;5.506;2022-08-19T13:06:41;20.52;;;11.30;;
70247;SDS011;57641;51.416;5.506;2022-08-19T13:09:08;16.13;;;10.30;;
70247;SDS011;57641;51.416;5.506;2022-08-19T13:11:34;18.30;;;10.35;;
70247;SDS011;57641;51.416;5.506;2022-08-19T13:14:00;14.52;;;8.63;;
70247;SDS011;57641;51.416;5.506;2022-08-19T13:16:28;12.98;;;8.80;;
70247;SDS011;57641;51.416;5.506;2022-08-19T13:18:55;13.75;;;8.45;;
70247;SDS011;57641;51.416;5.506;2022-08-19T13:21:22;15.60;;;9.00;;
70247;SDS011;57641;51.416;5.506;2022-08-19T13:23:50;15.05;;;8.52;;
70247;SDS011;57641;51.416;5.506;2022-08-19T13:26:16;14.07;;;7.60;;
70247;SDS011;57641;51.416;5.506;2022-08-19T13:28:43;15.23;;;9.07;;
70247;SDS011;57641;51.416;5.506;2022-08-19T13:31:29;14.23;;;8.40;;
70247;SDS011;57641;51.416;5.506;2022-08-19T13:34:16;12.68;;;7.40;;
70247;SDS011;57641;51.416;5.506;2022-08-19T13:36:45;13.20;;;7.75;;
70247;SDS011;57641;51.416;5.506;2022-08-19T13:39:11;15.75;;;8.48;;
70247;SDS011;57641;51.416;5.506;2022-08-19T13:41:37;14.00;;;8.80;;
70247;SDS011;57641;51.416;5.506;2022-08-19T13:44:13;14.93;;;8.00;;
70247;SDS011;57641;51.416;5.506;2022-08-19T13:46:40;14.95;;;8.35;;
70247;SDS011;57641;51.416;5.506;2022-08-19T13:49:13;14.85;;;8.65;;
70247;SDS011;57641;51.416;5.506;2022-08-19T13:51:39;14.60;;;7.38;;
70247;SDS011;57641;51.416;5.506;2022-08-19T13:54:07;14.52;;;8.15;;
70247;SDS011;57641;51.416;5.506;2022-08-19T13:56:33;11.82;;;7.60;;
70247;SDS011;57641;51.416;5.506;2022-08-19T13:59:00;14.57;;;7.65;;
70247;SDS011;57641;51.416;5.506;2022-08-19T14:01:26;11.77;;;6.90;;
70247;SDS011;57641;51.416;5.506;2022-08-19T14:03:52;10.07;;;6.63;;
70247;SDS011;57641;51.416;5.506;2022-08-19T14:06:19;11.10;;;7.07;;
70247;SDS011;57641;51.416;5.506;2022-08-19T14:08:46;11.20;;;6.70;;
70247;SDS011;57641;51.416;5.506;2022-08-19T14:11:11;11.52;;;6.80;;
70247;SDS011;57641;51.416;5.506;2022-08-19T14:13:37;9.45;;;5.90;;
70247;SDS011;57641;51.416;5.506;2022-08-19T14:16:08;10.32;;;6.28;;
70247;SDS011;57641;51.416;5.506;2022-08-19T14:18:34;12.20;;;7.03;;
70247;SDS011;57641;51.416;5.506;2022-08-19T14:21:00;10.52;;;7.10;;
70247;SDS011;57641;51.416;5.506;2022-08-19T14:23:26;11.45;;;7.43;;
70247;SDS011;57641;51.416;5.506;2022-08-19T14:25:51;16.15;;;8.88;;
70247;SDS011;57641;51.416;5.506;2022-08-19T14:28:17;10.18;;;7.10;;
70247;SDS011;57641;51.416;5.506;2022-08-19T14:30:42;9.70;;;6.68;;
70247;SDS011;57641;51.416;5.506;2022-08-19T14:33:09;10.38;;;6.78;;
70247;SDS011;57641;51.416;5.506;2022-08-19T14:35:35;10.05;;;5.57;;
70247;SDS011;57641;51.416;5.506;2022-08-19T14:38:05;10.25;;;5.97;;
70247;SDS011;57641;51.416;5.506;2022-08-19T14:40:31;9.88;;;6.28;;
70247;SDS011;57641;51.416;5.506;2022-08-19T14:43:01;9.73;;;5.63;;
70247;SDS011;57641;51.416;5.506;2022-08-19T14:45:32;8.98;;;5.32;;
70247;SDS011;57641;51.416;5.506;2022-08-19T14:48:01;7.75;;;5.22;;
70247;SDS011;57641;51.416;5.506;2022-08-19T14:50:26;8.15;;;4.53;;
70247;SDS011;57641;51.416;5.506;2022-08-19T14:53:03;5.95;;;4.18;;
70247;SDS011;57641;51.416;5.506;2022-08-19T14:55:32;6.90;;;4.40;;